Skip Navigation Links Skip Navigation Links

Current Weather

Linden, N.J.

For information only: do not use for flight planning or navigation.
Latest weather
Observation time Sunday, September 20, 2020 3:35 AM EDT
Local time Sunday, September 20, 2020 3:54 AM EDT
Flight conditions Visual Meteorological Conditions
Winds
Wind direction North-Northeast (20°)
Wind speed 7 mph
Visibility 10 mi.
Sky condition
Ceiling unlimited
Sky clear
Temperature 51°F
Dewpoint 32°F
Altimeter 30.41 in.Hg
Derived measurements
Relative humidity 49%
Density altitude -1002 ft.
Remarks
Fully automated report.
Automated weather observing station with precipitation discriminator.
METAR KLDJ 200735Z AUTO 02006KT 10SM CLR 10/00 A3041 RMK AO2 T01030000

Settings

Location code

InnerDrive.Weather 4.0.6770.0 Release CLR 4.0.30319.42000
Copyright ©2018 Inner Drive Technology. All rights reserved. Portions Copyright ©1986-2018 David Braverman.

Find weather

Site navigation


Skip Navigation Links

Place info

Page info

PayPal - The safer, easier way to pay online!

Return home.

Copyright ©2020 Inner Drive Technology. Purveyors of fine, hand-crafted computer software. Page printed 2020-09-20T07:54:30 UTC.